createdAt,value
2019-01-28T00:00:35.923Z,1.20
2019-01-28T00:03:51.864Z,1.00
2019-01-28T00:07:05.529Z,1.20
2019-01-28T00:10:28.259Z,1.10
2019-01-28T00:13:41.914Z,1.00
2019-01-28T00:16:57.299Z,1.00
2019-01-28T00:20:12.539Z,1.10
2019-01-28T00:23:28.664Z,1.13
2019-01-28T00:26:43.960Z,1.00
2019-01-28T00:30:00.008Z,1.03
2019-01-28T00:33:15.897Z,1.20
2019-01-28T00:36:31.944Z,1.10
2019-01-28T00:39:50.151Z,1.00
2019-01-28T00:43:06.082Z,1.07
2019-01-28T00:46:21.398Z,0.90
2019-01-28T00:49:36.699Z,1.20
2019-01-28T00:52:52.863Z,1.03
2019-01-28T00:56:09.004Z,1.30
2019-01-28T00:59:24.971Z,1.40
2019-01-28T01:02:40.868Z,1.03
2019-01-28T01:05:56.689Z,1.00
2019-01-28T01:09:12.480Z,1.47
2019-01-28T01:12:28.213Z,0.97
2019-01-28T01:15:41.819Z,1.10
2019-01-28T01:18:57.383Z,1.30
2019-01-28T01:22:10.953Z,1.17
2019-01-28T01:25:33.654Z,1.57
2019-01-28T01:28:49.208Z,1.07
2019-01-28T01:32:05.080Z,1.33
2019-01-28T01:35:08.315Z,1.37
2019-01-28T01:38:31.009Z,1.33
2019-01-28T01:41:53.731Z,1.20
2019-01-28T01:45:09.081Z,1.10
2019-01-28T01:48:24.920Z,1.27
2019-01-28T01:51:40.792Z,1.23
2019-01-28T01:54:55.950Z,1.17
2019-01-28T01:58:09.616Z,1.30
2019-01-28T02:01:24.864Z,1.20
2019-01-28T02:04:40.930Z,1.20
2019-01-28T02:07:56.716Z,1.20
2019-01-28T02:11:12.561Z,1.03
2019-01-28T02:14:27.759Z,1.20
2019-01-28T02:17:43.313Z,1.27
2019-01-28T02:20:59.403Z,1.13
2019-01-28T02:24:15.191Z,1.33
2019-01-28T02:27:31.084Z,1.20
2019-01-28T02:30:46.776Z,1.27
2019-01-28T02:34:02.692Z,1.20
2019-01-28T02:37:06.043Z,1.20
2019-01-28T02:40:13.769Z,1.30
2019-01-28T02:43:36.513Z,1.20
2019-01-28T02:46:59.198Z,1.30
2019-01-28T02:50:15.172Z,1.10
2019-01-28T02:53:34.201Z,1.30
2019-01-28T02:56:49.833Z,1.20
2019-01-28T03:00:05.852Z,1.30
2019-01-28T03:03:21.778Z,1.10
2019-01-28T03:06:37.757Z,1.53
2019-01-28T03:09:53.830Z,1.37
2019-01-28T03:13:09.932Z,1.30
2019-01-28T03:16:13.206Z,1.17
2019-01-28T03:19:35.920Z,1.30
2019-01-28T03:22:58.683Z,1.13
2019-01-28T03:26:14.715Z,1.20
2019-01-28T03:29:29.878Z,1.30
2019-01-28T03:32:46.507Z,1.10
2019-01-28T03:36:02.302Z,1.10
2019-01-28T03:39:18.101Z,0.80
2019-01-28T03:42:33.395Z,1.13
2019-01-28T03:45:49.524Z,1.00
2019-01-28T03:49:09.945Z,0.90
2019-01-28T03:52:25.283Z,1.03
2019-01-28T03:55:41.261Z,0.97
2019-01-28T03:58:57.320Z,1.10
2019-01-28T04:02:13.110Z,1.07
2019-01-28T04:05:28.346Z,0.93
2019-01-28T04:08:43.709Z,1.30
2019-01-28T04:11:59.730Z,1.10
2019-01-28T04:15:17.068Z,0.90
2019-01-28T04:18:33.067Z,1.03
2019-01-28T04:21:49.212Z,0.93
2019-01-28T04:25:05.077Z,0.97
2019-01-28T04:28:21.058Z,1.10
2019-01-28T04:31:37.052Z,1.10
2019-01-28T04:34:53.108Z,1.10
2019-01-28T04:38:06.779Z,1.00
2019-01-28T04:41:29.508Z,0.90
2019-01-28T04:44:47.516Z,1.10
2019-01-28T04:48:02.804Z,0.90
2019-01-28T04:51:19.040Z,0.80
2019-01-28T04:54:35.033Z,1.07
2019-01-28T04:57:52.321Z,0.90
2019-01-28T05:01:08.410Z,0.80
2019-01-28T05:04:24.276Z,1.00
2019-01-28T05:07:39.936Z,1.00
2019-01-28T05:10:55.201Z,1.00
2019-01-28T05:14:11.964Z,0.80
2019-01-28T05:17:28.178Z,0.87
2019-01-28T05:20:44.219Z,0.80
2019-01-28T05:24:00.258Z,0.80
2019-01-28T05:27:15.908Z,0.90
2019-01-28T05:30:34.639Z,1.10
2019-01-28T05:33:50.806Z,0.60
2019-01-28T05:37:06.671Z,0.80
2019-01-28T05:40:22.780Z,1.07
2019-01-28T05:43:38.962Z,0.70
2019-01-28T05:46:56.596Z,0.73
2019-01-28T05:50:12.269Z,0.90
2019-01-28T05:53:27.586Z,1.00
2019-01-28T05:56:43.360Z,1.03
2019-01-28T06:00:00.591Z,0.90
2019-01-28T06:03:16.635Z,0.63
2019-01-28T06:06:32.220Z,0.80
2019-01-28T06:09:48.228Z,0.80
2019-01-28T06:13:05.051Z,0.60
2019-01-28T06:16:22.238Z,0.70
2019-01-28T06:19:37.756Z,0.80
2019-01-28T06:22:51.367Z,0.70
2019-01-28T06:26:10.342Z,0.80
2019-01-28T06:29:25.636Z,0.70
2019-01-28T06:32:42.327Z,0.70
2019-01-28T06:35:58.074Z,0.70
2019-01-28T06:39:14.031Z,0.70
2019-01-28T06:42:30.018Z,0.70
2019-01-28T06:45:45.693Z,0.70
2019-01-28T06:49:01.261Z,0.70
2019-01-28T06:52:16.840Z,0.50
2019-01-28T06:55:32.499Z,0.60
2019-01-28T06:58:48.933Z,0.70
2019-01-28T07:02:05.174Z,0.80
2019-01-28T07:05:20.826Z,0.70
2019-01-28T07:08:38.423Z,0.60
2019-01-28T07:11:54.395Z,0.70
2019-01-28T07:15:10.611Z,0.80
2019-01-28T07:18:29.645Z,0.50
2019-01-28T07:21:43.332Z,0.60
2019-01-28T07:25:06.075Z,0.60
2019-01-28T07:28:28.793Z,0.60
2019-01-28T07:31:44.127Z,0.50
2019-01-28T07:34:59.997Z,0.70
2019-01-28T07:38:17.754Z,0.77
2019-01-28T07:41:31.458Z,0.77
2019-01-28T07:44:54.152Z,0.50
2019-01-28T07:48:09.823Z,0.67
2019-01-28T07:51:16.851Z,0.60
2019-01-28T07:54:21.727Z,0.60
2019-01-28T07:57:44.410Z,0.70
2019-01-28T08:01:01.585Z,0.53
2019-01-28T08:04:17.151Z,0.60
2019-01-28T08:07:32.831Z,0.67
2019-01-28T08:10:48.800Z,0.67
2019-01-28T08:14:04.907Z,0.60
2019-01-28T08:17:20.451Z,0.73
2019-01-28T08:20:36.103Z,0.80
2019-01-28T08:23:52.056Z,0.80
2019-01-28T08:27:07.963Z,0.70
2019-01-28T08:30:23.641Z,0.70
2019-01-28T08:33:39.670Z,0.60
2019-01-28T08:36:55.613Z,0.50
2019-01-28T08:40:11.370Z,0.50
2019-01-28T08:43:26.950Z,0.70
2019-01-28T08:46:43.001Z,0.60
2019-01-28T08:49:59.040Z,0.60
2019-01-28T08:53:15.004Z,0.70
2019-01-28T08:56:30.800Z,0.70
2019-01-28T08:59:46.909Z,0.70
2019-01-28T09:03:02.916Z,0.53
2019-01-28T09:06:16.451Z,0.70
2019-01-28T09:09:31.775Z,0.60
2019-01-28T09:12:47.714Z,0.50
2019-01-28T09:16:01.175Z,0.50
2019-01-28T09:19:23.860Z,0.60
2019-01-28T09:22:39.474Z,0.60
2019-01-28T09:25:55.048Z,0.80
2019-01-28T09:29:11.204Z,0.60
2019-01-28T09:32:27.209Z,0.60
2019-01-28T09:35:43.328Z,0.70
2019-01-28T09:38:59.321Z,0.70
2019-01-28T09:42:12.966Z,0.70
2019-01-28T09:45:47.102Z,0.73
2019-01-28T09:49:09.772Z,0.60
2019-01-28T09:52:25.913Z,0.80
2019-01-28T09:55:41.947Z,0.70
2019-01-28T09:58:57.137Z,0.60
2019-01-28T10:02:12.417Z,0.70
2019-01-28T10:08:51.844Z,0.50
2019-01-28T10:12:07.493Z,0.60
2019-01-28T10:15:28.464Z,0.53
2019-01-28T10:18:41.900Z,0.60
2019-01-28T10:21:57.851Z,0.70
2019-01-28T10:25:13.999Z,0.60
2019-01-28T10:28:30.096Z,0.60
2019-01-28T10:31:46.205Z,0.70
2019-01-28T10:35:02.138Z,0.80
2019-01-28T10:38:17.400Z,0.70
2019-01-28T10:41:33.395Z,0.43
2019-01-28T10:44:49.441Z,0.50
2019-01-28T10:48:05.116Z,0.70
2019-01-28T10:51:20.646Z,0.70
2019-01-28T11:01:18.516Z,0.60
2019-01-28T11:04:33.819Z,0.50
2019-01-28T11:07:49.750Z,0.60
2019-01-28T11:11:05.052Z,0.50
2019-01-28T11:14:20.755Z,0.70
2019-01-28T11:17:36.757Z,0.50
2019-01-28T11:20:55.923Z,0.60
2019-01-28T11:24:11.992Z,0.60
2019-01-28T11:27:27.410Z,0.60
2019-01-28T11:30:47.954Z,0.50
2019-01-28T11:34:03.338Z,0.60
2019-01-28T11:37:19.166Z,0.60
2019-01-28T11:40:37.515Z,0.50
2019-01-28T11:43:51.166Z,0.70
2019-01-28T11:47:14.117Z,0.60
2019-01-28T11:50:30.192Z,0.60
2019-01-28T11:53:45.988Z,0.70
2019-01-28T11:57:01.816Z,0.80
2019-01-28T12:00:17.603Z,0.60
2019-01-28T12:06:57.927Z,0.60
2019-01-28T12:10:14.075Z,0.60
2019-01-28T12:13:30.174Z,0.80
2019-01-28T12:16:46.233Z,0.70
2019-01-28T12:20:02.269Z,0.70
2019-01-28T12:23:18.337Z,0.60
2019-01-28T12:26:34.432Z,0.60
2019-01-28T12:29:49.580Z,0.80
2019-01-28T12:33:05.399Z,0.67
2019-01-28T12:36:21.512Z,0.70
2019-01-28T12:39:37.336Z,0.70
2019-01-28T12:42:53.670Z,0.77
2019-01-28T12:49:26.875Z,0.90
2019-01-28T12:52:44.219Z,0.60
2019-01-28T12:56:00.319Z,0.57
2019-01-28T12:59:16.407Z,0.70
2019-01-28T13:02:32.524Z,0.73
2019-01-28T13:05:46.145Z,0.70
2019-01-28T13:09:01.541Z,0.87
2019-01-28T13:12:17.608Z,0.60
2019-01-28T13:15:32.885Z,0.80
2019-01-28T13:18:49.898Z,0.70
2019-01-28T13:22:05.915Z,0.80
2019-01-28T13:25:22.920Z,0.60
2019-01-28T13:28:38.974Z,0.60
2019-01-28T13:31:54.131Z,0.77
2019-01-28T13:35:10.280Z,0.70
2019-01-28T13:38:26.179Z,0.63
2019-01-28T13:41:29.473Z,0.60
2019-01-28T13:44:52.143Z,0.60
2019-01-28T13:48:14.820Z,0.60
2019-01-28T13:51:30.360Z,0.60
2019-01-28T13:54:46.088Z,0.60
2019-01-28T13:58:01.514Z,0.60
2019-01-28T14:01:16.889Z,0.67
2019-01-28T14:04:32.981Z,0.50
2019-01-28T14:07:48.896Z,0.53
2019-01-28T14:11:04.254Z,0.60
2019-01-28T14:14:20.205Z,0.50
2019-01-28T14:17:35.910Z,0.50
2019-01-28T14:20:53.495Z,0.60
2019-01-28T14:24:07.127Z,0.50
2019-01-28T14:27:29.813Z,0.60
2019-01-28T14:30:45.548Z,0.60
2019-01-28T14:34:01.456Z,0.70
2019-01-28T14:37:16.648Z,0.50
2019-01-28T14:40:32.530Z,0.70
2019-01-28T14:43:48.259Z,0.60
2019-01-28T14:47:04.372Z,0.60
2019-01-28T14:50:20.056Z,0.70
2019-01-28T14:53:36.085Z,0.50
2019-01-28T14:56:52.226Z,0.50
2019-01-28T15:00:08.880Z,0.67
2019-01-28T15:03:25.179Z,0.53
2019-01-28T15:06:41.256Z,0.60
2019-01-28T15:09:57.347Z,0.70
2019-01-28T15:13:13.621Z,0.50
2019-01-28T15:16:29.780Z,0.50
2019-01-28T15:19:50.640Z,0.50
2019-01-28T15:23:02.809Z,0.50
2019-01-28T15:26:19.026Z,0.60
2019-01-28T15:29:35.067Z,0.50
2019-01-28T15:32:53.643Z,0.50
2019-01-28T15:36:09.687Z,0.60
2019-01-28T15:39:25.483Z,0.50
2019-01-28T15:42:41.312Z,0.60
2019-01-28T15:45:56.484Z,0.53
2019-01-28T15:49:12.704Z,0.50
2019-01-28T15:52:28.348Z,0.50
2019-01-28T15:55:43.619Z,0.60
2019-01-28T15:58:59.428Z,0.40
2019-01-28T16:02:15.276Z,0.57
2019-01-28T16:05:30.990Z,0.50
2019-01-28T16:08:46.840Z,0.63
2019-01-28T16:12:02.798Z,0.60
2019-01-28T16:15:18.113Z,0.60
2019-01-28T16:18:34.978Z,0.50
2019-01-28T16:21:50.912Z,0.60
2019-01-28T16:25:07.008Z,0.70
2019-01-28T16:28:22.823Z,0.60
2019-01-28T16:31:38.836Z,0.60
2019-01-28T16:34:54.054Z,0.50
2019-01-28T16:38:09.850Z,0.50
2019-01-28T16:41:25.860Z,0.67
2019-01-28T16:44:45.077Z,0.50
2019-01-28T16:48:01.077Z,0.40
2019-01-28T16:51:16.532Z,0.50
2019-01-28T16:54:32.609Z,0.53
2019-01-28T16:57:48.044Z,0.50
2019-01-28T17:01:04.204Z,0.50
2019-01-28T17:04:20.413Z,0.60
2019-01-28T17:07:36.460Z,0.60
2019-01-28T17:10:52.445Z,0.60
2019-01-28T17:14:07.867Z,0.67
2019-01-28T17:17:23.884Z,0.50
2019-01-28T17:20:39.936Z,0.40
2019-01-28T17:23:55.770Z,0.50
2019-01-28T17:27:11.974Z,0.60
2019-01-28T17:30:27.839Z,0.70
2019-01-28T17:33:43.191Z,0.77
2019-01-28T17:37:00.503Z,0.50
2019-01-28T17:43:40.568Z,0.60
2019-01-28T17:46:56.496Z,0.70
2019-01-28T17:50:11.904Z,0.50
2019-01-28T17:56:45.574Z,0.60
2019-01-28T18:00:01.412Z,0.50
2019-01-28T18:06:41.973Z,0.43
2019-01-28T18:09:55.548Z,0.53
2019-01-28T18:13:18.229Z,0.60
2019-01-28T18:16:33.667Z,0.50
2019-01-28T18:19:49.912Z,0.60
2019-01-28T18:23:05.135Z,0.50
2019-01-28T18:26:20.468Z,0.40
2019-01-28T18:29:36.013Z,0.43
2019-01-28T18:32:51.280Z,0.50
2019-01-28T18:36:06.771Z,0.50
2019-01-28T18:39:22.852Z,0.50
2019-01-28T18:42:38.081Z,0.60
2019-01-28T18:45:53.875Z,0.60
2019-01-28T18:49:09.061Z,0.60
2019-01-28T18:52:22.644Z,0.60
2019-01-28T18:55:45.332Z,0.50
2019-01-28T18:59:05.369Z,0.60
2019-01-28T19:02:18.302Z,0.63
2019-01-28T19:05:38.099Z,0.50
2019-01-28T19:09:12.533Z,0.40
2019-01-28T19:12:30.065Z,0.57
2019-01-28T19:16:04.658Z,0.60
2019-01-28T19:19:39.532Z,0.60
2019-01-28T19:22:54.975Z,0.50
2019-01-28T19:26:11.152Z,0.60
2019-01-28T19:29:26.849Z,0.40
2019-01-28T19:36:06.514Z,0.50
2019-01-28T19:39:22.558Z,0.53
2019-01-28T19:42:38.412Z,0.70
2019-01-28T19:45:54.309Z,0.60
2019-01-28T19:49:09.488Z,0.60
2019-01-28T19:52:25.390Z,0.67
2019-01-28T19:55:41.307Z,0.60
2019-01-28T19:58:56.568Z,0.50
2019-01-28T20:02:12.020Z,0.50
2019-01-28T20:05:28.098Z,0.60
2019-01-28T20:08:41.760Z,0.60
2019-01-28T20:11:57.549Z,0.60
2019-01-28T20:15:00.851Z,0.50
2019-01-28T20:18:23.550Z,0.50
2019-01-28T20:21:46.260Z,0.40
2019-01-28T20:25:01.935Z,0.60
2019-01-28T20:28:18.191Z,0.57
2019-01-28T20:31:34.375Z,0.50
2019-01-28T20:34:50.384Z,0.50
2019-01-28T20:38:05.706Z,0.60
2019-01-28T20:41:20.977Z,0.47
2019-01-28T20:44:37.088Z,0.60
2019-01-28T20:47:53.292Z,0.50
2019-01-28T20:51:08.652Z,0.40
2019-01-28T20:54:24.597Z,0.50
2019-01-28T20:57:40.605Z,0.50
2019-01-28T21:00:56.729Z,0.53
2019-01-28T21:04:12.712Z,0.50
2019-01-28T21:10:52.293Z,0.60
2019-01-28T21:14:08.524Z,0.60
2019-01-28T21:17:23.823Z,0.60
2019-01-28T21:20:39.778Z,0.50
2019-01-28T21:23:43.062Z,0.50
2019-01-28T21:27:05.783Z,0.60
2019-01-28T21:30:39.639Z,0.50
2019-01-28T21:34:02.305Z,0.67
2019-01-28T21:37:19.976Z,0.60
2019-01-28T21:40:33.647Z,0.40
2019-01-28T21:43:56.347Z,0.50
2019-01-28T21:47:12.268Z,0.60
2019-01-28T21:50:28.188Z,0.50
2019-01-28T21:53:43.932Z,0.60
2019-01-28T21:57:00.028Z,0.60
2019-01-28T22:00:15.838Z,0.67
2019-01-28T22:03:29.379Z,0.50
2019-01-28T22:06:52.051Z,0.40
2019-01-28T22:10:07.595Z,0.70
2019-01-28T22:13:23.621Z,0.50
2019-01-28T22:16:39.710Z,0.50
2019-01-28T22:19:55.596Z,0.50
2019-01-28T22:23:11.522Z,0.40
2019-01-28T22:26:27.326Z,0.60
2019-01-28T22:29:42.861Z,0.40
2019-01-28T22:32:59.012Z,0.40
2019-01-28T22:36:15.148Z,0.50
2019-01-28T22:39:31.051Z,0.50
2019-01-28T22:42:47.273Z,0.53
2019-01-28T22:46:04.071Z,0.50
2019-01-28T22:49:20.132Z,0.50
2019-01-28T22:52:23.383Z,0.50
2019-01-28T22:55:46.089Z,0.60
2019-01-28T22:59:02.079Z,0.50
2019-01-28T23:02:17.349Z,0.50
2019-01-28T23:05:32.625Z,0.60
2019-01-28T23:08:46.237Z,0.40
2019-01-28T23:12:01.921Z,0.60
2019-01-28T23:15:17.815Z,0.60
2019-01-28T23:18:33.859Z,0.70
2019-01-28T23:21:49.132Z,0.50
2019-01-28T23:25:04.886Z,0.50
2019-01-28T23:28:20.944Z,0.60
2019-01-28T23:31:36.049Z,0.60
2019-01-28T23:34:51.684Z,0.40
2019-01-28T23:38:07.756Z,0.50
2019-01-28T23:41:23.495Z,0.60
2019-01-28T23:44:39.648Z,0.40
2019-01-28T23:47:55.215Z,0.50
2019-01-28T23:51:11.351Z,0.50
2019-01-28T23:54:27.036Z,0.43
2019-01-28T23:57:43.039Z,0.50
